Terminal Aerodrome Forecast
Issued by NWS

Home | Current Version | Previous Version | Text Only | Print | Product List | Glossary On
Versions: 1 2 3 4 5 6 7 8 9 10 11 12 13 14 15 16 17
000
FTUS43 KGLD 162029 AAB
TAFMCK
TAF AMD
KMCK 162029Z 1620/1718 30012G20KT P6SM VCTS SCT040CB BKN080
     FM162130 33014G22KT P6SM SCT050
     FM170100 33007KT P6SM FEW050 FEW200
     FM170600 VRB05KT P6SM FEW070
     FM171300 23006KT P6SM SKC=

USA.gov is the U.S. government's official web portal to all federal, state and local government web resources and services.